^^
Station Historical Data
Daily Summary for April 5, 2017 Units:  Metric    English   Both
« Previous Day
Next Day »
Daily Weekly Monthly Yearly Custom
  High: Low: Average:
Temperature: 32.4 °C 18.8 °C 23.8 °C
Dew Point: 11.5 °C 3.5 °C 8.6 °C
Humidity: 60% 20% 40%
Wind Speed: 25.9km/h 0km/h 10.3km/h
Wind Gust: 35.4km/h - -
Wind- - SSW
Pressure: 1014.1 hPa 1010.7 hPa -
Precipitation: 0 mm    
Historical Graphs
 
 
Tabular Data for April 5, 2017
Time Temperature Dew Point Pressure Wind Wind Speed Wind Gust Humidity Rainfall Rate (Hourly) solar Conditions
00:43 22.7 °C 8.4 °C 1012.8 hPa Calm     40% 0 mm 0.0 W/m2
00:52 22.6 °C 8.3 °C 1012.8 hPa Calm     40% 0 mm 0.0 W/m2
00:53 22.3 °C 8.4 °C 1012.8 hPa Calm     41% 0 mm 0.0 W/m2
01:10 21.9 °C 8.4 °C 1012.8 hPa Calm     42% 0 mm 0.0 W/m2
01:18 21.8 °C 8.3 °C 1012.8 hPa Calm     42% 0 mm 0.0 W/m2
02:23 20.2 °C 8.5 °C 1012.4 hPa Calm     47% 0 mm 0.0 W/m2
02:28 20.1 °C 8.7 °C 1012.4 hPa Calm     48% 0 mm 0.0 W/m2
02:33 19.9 °C 8.6 °C 1012.4 hPa Calm     48% 0 mm 0.0 W/m2
02:39 19.8 °C 8.2 °C 1012.4 hPa Calm     47% 0 mm 0.0 W/m2
02:44 19.6 °C 8.3 °C 1012.4 hPa Calm     48% 0 mm 0.0 W/m2
02:49 19.4 °C 8.1 °C 1012.4 hPa Calm     48% 0 mm 0.0 W/m2
02:54 19.3 °C 8.6 °C 1012.4 hPa Calm     50% 0 mm 0.0 W/m2
02:59 19.3 °C 8.6 °C 1012.4 hPa Calm     50% 0 mm 0.0 W/m2
03:04 19.3 °C 8.6 °C 1012.4 hPa Calm     50% 0 mm 0.0 W/m2
03:10 19.4 °C 8.7 °C 1012.4 hPa Calm     50% 0 mm 0.0 W/m2
03:15 19.6 °C 8.6 °C 1012.4 hPa Calm     49% 0 mm 0.0 W/m2
03:20 19.7 °C 9 °C 1012.4 hPa Calm     50% 0 mm 0.0 W/m2
03:26 19.8 °C 9.1 °C 1012.4 hPa Calm     50% 0 mm 0.0 W/m2
03:31 19.8 °C 9.1 °C 1012.8 hPa Calm     50% 0 mm 0.0 W/m2
03:36 19.9 °C 9.2 °C 1012.8 hPa SSW 9.7 km/h 11.3 km/h 50% 0 mm 0.0 W/m2
03:41 20.1 °C 9.4 °C 1012.8 hPa SSW 7.9 km/h 11.3 km/h 50% 0 mm 0.0 W/m2
03:46 20.2 °C 9.1 °C 1012.4 hPa SSW 7.9 km/h 11.3 km/h 49% 0 mm 0.0 W/m2
03:51 20.2 °C 9.1 °C 1012.4 hPa SSW 4.7 km/h 9.7 km/h 49% 0 mm 0.0 W/m2
03:56 20.1 °C 9.4 °C 1012.4 hPa SSW 6.4 km/h 9.7 km/h 50% 0 mm 0.0 W/m2
04:01 19.9 °C 9.2 °C 1012.4 hPa SSW 7.9 km/h 8 km/h 50% 0 mm 0.0 W/m2
04:06 19.7 °C 9.3 °C 1012.4 hPa SSW 6.4 km/h 9.7 km/h 51% 0 mm 0.0 W/m2
04:12 19.7 °C 9.6 °C 1012.4 hPa SSW 9.7 km/h 9.7 km/h 52% 0 mm 0.0 W/m2
04:17 19.7 °C 9.3 °C 1012.8 hPa SSW 7.9 km/h 12.9 km/h 51% 0 mm 0.0 W/m2
04:27 19.6 °C 9.5 °C 1012.4 hPa SSW 4.7 km/h 8 km/h 52% 0 mm 0.0 W/m2
04:32 19.6 °C 9.2 °C 1012.8 hPa Calm     51% 0 mm 0.0 W/m2
04:37 19.4 °C 9.3 °C 1012.8 hPa Calm     52% 0 mm 0.0 W/m2
04:42 19.2 °C 9.4 °C 1012.8 hPa SSW 4.7 km/h 8 km/h 53% 0 mm 0.0 W/m2
04:45 19.3 °C 9.5 °C 1012.8 hPa SSW 7.9 km/h 9.7 km/h 53% 0 mm 0.0 W/m2
04:52 19.3 °C 9.5 °C 1012.8 hPa SSW 7.9 km/h 11.3 km/h 53% 0 mm 0.0 W/m2
05:12 19.5 °C 9.4 °C 1013.1 hPa SSW 7.9 km/h 11.3 km/h 52% 0 mm 0.0 W/m2
05:17 19.4 °C 9.6 °C 1013.1 hPa SSW 7.9 km/h 11.3 km/h 53% 0 mm 0.0 W/m2
05:22 19.3 °C 9.8 °C 1013.1 hPa SSW 7.9 km/h 11.3 km/h 54% 0 mm 0.0 W/m2
05:27 19.4 °C 9.9 °C 1013.1 hPa SSW 9.7 km/h 11.3 km/h 54% 0 mm 0.0 W/m2
05:37 19.4 °C 10.1 °C 1013.4 hPa SSW 13 km/h 16.1 km/h 55% 0 mm 0.0 W/m2
05:42 19.4 °C 10.4 °C 1013.4 hPa SSW 11.1 km/h 11.3 km/h 56% 0 mm 0.0 W/m2
05:52 19.2 °C 10.5 °C 1013.4 hPa SSW 9.7 km/h 11.3 km/h 57% 0 mm 0.0 W/m2
06:02 19.1 °C 10.6 °C 1013.8 hPa SSW 7.9 km/h 11.3 km/h 58% 0 mm 0.0 W/m2
06:17 18.9 °C 10.7 °C 1013.8 hPa SSW 6.4 km/h 8 km/h 59% 0 mm 16.0 W/m2
06:22 18.8 °C 10.9 °C 1013.8 hPa SSW 4.7 km/h 6.4 km/h 60% 0 mm 19.0 W/m2
06:28 18.8 °C 10.9 °C 1013.8 hPa Calm     60% 0 mm 23.0 W/m2
06:37 18.8 °C 10.9 °C 1013.8 hPa SSW 4.7 km/h 8 km/h 60% 0 mm 58.0 W/m2
06:43 19 °C 11.1 °C 1014.1 hPa SSW 7.9 km/h 9.7 km/h 60% 0 mm 74.0 W/m2
06:48 19.3 °C 11.1 °C 1014.1 hPa SSW 4.7 km/h 11.3 km/h 59% 0 mm 90.0 W/m2
06:59 19.8 °C 11.3 °C 1014.1 hPa SSW 7.9 km/h 14.5 km/h 58% 0 mm 128.0 W/m2
07:10 20.2 °C 11.4 °C 1013.8 hPa SSW 13 km/h 16.1 km/h 57% 0 mm 171.0 W/m2
07:16 20.6 °C 11.5 °C 1014.1 hPa SSW 9.7 km/h 12.9 km/h 56% 0 mm 209.0 W/m2
07:33 20.9 °C 11.5 °C 1013.8 hPa SSW 7.9 km/h 9.7 km/h 55% 0 mm 248.0 W/m2
07:41 21.3 °C 11.3 °C 1013.8 hPa SSW 7.9 km/h 9.7 km/h 53% 0 mm 301.0 W/m2
07:58 21.7 °C 11.4 °C 1013.8 hPa SSW 7.9 km/h 11.3 km/h 52% 0 mm 332.0 W/m2
08:06 22.1 °C 11.5 °C 1013.8 hPa SSW 6.4 km/h 11.3 km/h 51% 0 mm 371.0 W/m2
08:12 22.4 °C 11.5 °C 1013.8 hPa SSW 6.4 km/h 8 km/h 50% 0 mm 399.0 W/m2
08:27 23.1 °C 11.5 °C 1013.8 hPa SSW 9.7 km/h 12.9 km/h 48% 0 mm 446.0 W/m2
08:42 23.9 °C 10.6 °C 1013.8 hPa SSW 9.7 km/h 11.3 km/h 43% 0 mm 494.0 W/m2
08:56 24.6 °C 10.1 °C 1014.1 hPa SSW 11.1 km/h 14.5 km/h 40% 0 mm 522.0 W/m2
09:06 25.1 °C 10.2 °C 1014.1 hPa SSW 11.1 km/h 16.1 km/h 39% 0 mm 552.0 W/m2
09:15 25.6 °C 11 °C 1014.1 hPa SSW 9.7 km/h 16.1 km/h 40% 0 mm 575.0 W/m2
09:25 25.9 °C 10.5 °C 1014.1 hPa SSW 11.1 km/h 12.9 km/h 38% 0 mm 605.0 W/m2
09:37 26.2 °C 9.9 °C 1014.1 hPa SSW 7.9 km/h 14.5 km/h 36% 0 mm 628.0 W/m2
09:42 26.6 °C 10.3 °C 1014.1 hPa SSW 13 km/h 13 km/h 36% 0 mm 650.0 W/m2
09:51 26.8 °C 10.1 °C 1014.1 hPa SSW 13 km/h 14.5 km/h 35% 0 mm 661.0 W/m2
09:56 27 °C 10.2 °C 1014.1 hPa SSW 14.3 km/h 20.9 km/h 35% 0 mm 668.0 W/m2
09:58 27.1 °C 9.9 °C 1014.1 hPa SSW 14.3 km/h 14.5 km/h 34% 0 mm 679.0 W/m2
10:10 27.3 °C 10.1 °C 1013.8 hPa SSW 17.7 km/h 19.3 km/h 34% 0 mm 700.0 W/m2
10:50 28.9 °C 9.6 °C 1013.4 hPa SSW 14.3 km/h 16.1 km/h 30% 0 mm 756.0 W/m2
10:58 29.3 °C 8.4 °C 1013.4 hPa SSW 9.7 km/h 20.9 km/h 27% 0 mm 766.0 W/m2
11:15 29.6 °C 8.1 °C 1013.4 hPa SSW 7.9 km/h 14.5 km/h 26% 0 mm 772.0 W/m2
11:23 29.9 °C 7.7 °C 1013.4 hPa SSW 9.7 km/h 19.3 km/h 25% 0 mm 780.0 W/m2
11:38 30.3 °C 8.1 °C 1013.1 hPa SSW 11.1 km/h 20.9 km/h 25% 0 mm 789.0 W/m2
11:55 30.3 °C 8.1 °C 1012.8 hPa SSW 9.7 km/h 24.1 km/h 25% 0 mm 789.0 W/m2
12:03 30.9 °C 8 °C 1012.8 hPa SSW 16.3 km/h 17.7 km/h 24% 0 mm 788.0 W/m2
12:24 30.9 °C 8 °C 1012.4 hPa SSW 7.9 km/h 14.5 km/h 24% 0 mm 780.0 W/m2
12:33 31 °C 7.4 °C 1012.1 hPa SSW 11.1 km/h 16.1 km/h 23% 0 mm 775.0 W/m2
12:43 31.3 °C 7.7 °C 1012.1 hPa SSW 16.3 km/h 17.7 km/h 23% 0 mm 770.0 W/m2
12:53 31.6 °C 7.3 °C 1011.7 hPa SSW 20.9 km/h 22.5 km/h 22% 0 mm 761.0 W/m2
13:05 31.6 °C 6.6 °C 1011.7 hPa SSW 13 km/h 16.1 km/h 21% 0 mm 752.0 W/m2
13:14 31.6 °C 6.6 °C 1011.4 hPa SSW 7.9 km/h 16.1 km/h 21% 0 mm 733.0 W/m2
13:29 32 °C 6.2 °C 1011.4 hPa SSW 16.3 km/h 16.3 km/h 20% 0 mm 708.0 W/m2
13:41 32.3 °C 6.5 °C 1011.1 hPa SSW 13 km/h 19.3 km/h 20% 0 mm 675.0 W/m2
13:49 32.2 °C 6.4 °C 1011.1 hPa SSW 13 km/h 19.3 km/h 20% 0 mm 608.0 W/m2
14:10 32.2 °C 7.1 °C 1010.7 hPa SSW 11.1 km/h 17.7 km/h 21% 0 mm 635.0 W/m2
14:18 32.3 °C 7.2 °C 1010.7 hPa SSW 14.3 km/h 17.7 km/h 21% 0 mm 608.0 W/m2
14:28 32.3 °C 7.2 °C 1010.7 hPa SSW 16.3 km/h 22.5 km/h 21% 0 mm 561.0 W/m2
14:34 32.4 °C 7.3 °C 1010.7 hPa SSW 14.3 km/h 22.5 km/h 21% 0 mm 577.0 W/m2
14:42 32.2 °C 7.1 °C 1010.7 hPa SSW 22.7 km/h 22.7 km/h 21% 0 mm 540.0 W/m2
17:23 29.4 °C 7.3 °C 1010.7 hPa South 20.9 km/h 32.2 km/h 25% 0 mm 26.0 W/m2
17:30 28.9 °C 6.9 °C 1010.7 hPa South 20.9 km/h 30.6 km/h 25% 0 mm 9.0 W/m2
17:45 28.4 °C 7 °C 1010.7 hPa SSW 22.7 km/h 30.6 km/h 26% 0 mm 0.0 W/m2
18:00 27.8 °C 8.1 °C 1011.1 hPa South 25.9 km/h 32.2 km/h 29% 0 mm 0.0 W/m2
18:07 27.8 °C 8.1 °C 1011.1 hPa South 25.9 km/h 32.2 km/h 29% 0 mm 0.0 W/m2
18:21 27.2 °C 9.1 °C 1011.4 hPa SSW 20.9 km/h 32.2 km/h 32% 0 mm 0.0 W/m2
18:38 26.9 °C 6.3 °C 1011.4 hPa South 25.9 km/h 35.4 km/h 27% 0 mm 0.0 W/m2
18:52 26.6 °C 5 °C 1011.7 hPa SSW 20.9 km/h 27.4 km/h 25% 0 mm 0.0 W/m2
19:00 26.3 °C 4.7 °C 1012.1 hPa SSW 20.9 km/h 27.4 km/h 25% 0 mm 0.0 W/m2
19:10 25.9 °C 4.4 °C 1012.1 hPa South 24.1 km/h 27.4 km/h 25% 0 mm 0.0 W/m2
19:25 25.6 °C 3.5 °C 1012.4 hPa South 20.9 km/h 25.7 km/h 24% 0 mm 0.0 W/m2
19:34 25.6 °C 3.5 °C 1012.4 hPa South 20.9 km/h 25.7 km/h 24% 0 mm 0.0 W/m2
19:40 25.2 °C 4.3 °C 1012.8 hPa SSW 16.3 km/h 22.5 km/h 26% 0 mm 0.0 W/m2
19:55 24.8 °C 5.1 °C 1012.8 hPa South 24.1 km/h 29 km/h 28% 0 mm 0.0 W/m2
20:05 24.8 °C 5.1 °C 1012.8 hPa South 24.1 km/h 29 km/h 28% 0 mm 0.0 W/m2
20:25 24.2 °C 6 °C 1013.1 hPa South 20.9 km/h 29 km/h 31% 0 mm 0.0 W/m2
20:43 23.8 °C 6.1 °C 1013.4 hPa SSW 20.9 km/h 25.7 km/h 32% 0 mm 0.0 W/m2
20:57 23.4 °C 5.8 °C 1013.4 hPa SSW 14.3 km/h 19.3 km/h 32% 0 mm 0.0 W/m2
21:11 23.2 °C 6 °C 1013.4 hPa SSW 19.5 km/h 25.7 km/h 33% 0 mm 0.0 W/m2
21:21 23 °C 5.9 °C 1013.4 hPa SSW 22.7 km/h 24.1 km/h 33% 0 mm 0.0 W/m2
21:29 22.8 °C 6.1 °C 1013.4 hPa SSW 16.3 km/h 20.9 km/h 34% 0 mm 0.0 W/m2
21:38 22.7 °C 6.4 °C 1013.4 hPa SSW 14.3 km/h 20.9 km/h 35% 0 mm 0.0 W/m2
Canyon Roadhouse, Fishriver Canyon, Namibia
Compliments of Weather Underground - 2.25 mb